ENMS/MJF METAR and TAF weather

Enter ICAO airport designator
Station Type Date Time Source
ENMS METAR 2018/12/12 17:20 UTC NOAA

ENMS 121720Z 20001KT 9999 SCT008 M10/M12 Q1032 RMK WIND 412FT 21003KT


Station Type Date Time Source
ENMS Decoded METAR 2018/12/12 17:20 UTC NOAA

Mosjoen Kjaerstad, Norway (ENMS) 65-48N 013-08E
Dec 12, 2018 - 12:20 PM EST / 2018.12.12 1720 UTC
Wind: from the SSW (200 degrees) at 1 MPH (1 KT):0
Visibility: greater than 7 mile(s):0
Sky conditions: partly cloudy
Temperature: 14 F (-10 C)
Dew Point: 10 F (-12 C)
Relative Humidity: 85%
Pressure (altimeter): 30.47 in. Hg (1032 hPa)
ob: ENMS 121720Z 20001KT 9999 SCT008 M10/M12 Q1032 RMK WIND 412FT 21003KT
cycle: 17

Station Type Date Time Source
ENMS TAF UTC NOAA

Error!


Example: see airport list